Time;durP1;ratioP1;P1;durP2;ratioP2;P2;SDS_P1;SDS_P2;PMS_P1;PMS_P2;Temp;Humidity;BMP_temperature;BMP_pressure;BME280_temperature;BME280_humidity;BME280_pressure;Samples;Min_cycle;Max_cycle;Signal;HPM_P1;HPM_P2
2023/10/04 00:01:50;;;;;;;5.82;2.10;;;;;;;16.36;61.44;102438.22;5148640;27;20047;-65
2023/10/04 00:04:18;;;;;;;8.68;2.35;;;;;;;16.37;61.54;102445.31;5154794;27;20051;-65
2023/10/04 00:06:46;;;;;;;8.60;2.22;;;;;;;16.35;61.30;102448.22;5148787;27;20103;-65
2023/10/04 00:09:14;;;;;;;7.90;2.03;;;;;;;16.35;61.39;102447.41;5163858;27;20100;-65
2023/10/04 00:11:42;;;;;;;10.80;2.55;;;;;;;16.34;61.61;102445.75;5141167;27;20042;-66
2023/10/04 00:14:11;;;;;;;9.38;2.00;;;;;;;16.32;61.58;102447.84;5152920;27;20042;-65
2023/10/04 00:16:39;;;;;;;6.97;2.58;;;;;;;16.31;61.59;102451.63;5150852;27;20107;-65
2023/10/04 00:19:07;;;;;;;8.32;2.15;;;;;;;16.30;61.72;102455.38;5147452;27;20101;-65
2023/10/04 00:21:35;;;;;;;7.28;2.08;;;;;;;16.29;61.66;102454.53;5150488;27;20050;-66
2023/10/04 00:24:04;;;;;;;7.80;2.40;;;;;;;16.29;61.77;102459.97;5148754;27;20066;-66
2023/10/04 00:26:32;;;;;;;6.43;2.00;;;;;;;16.27;61.79;102457.47;5148915;27;20138;-65
2023/10/04 00:28:59;;;;;;;6.43;1.90;;;;;;;16.28;61.88;102450.16;5155402;27;20051;-64
2023/10/04 00:31:31;;;;;;;7.95;2.25;;;;;;;16.27;61.87;102445.78;5140748;27;20061;-65
2023/10/04 00:33:59;;;;;;;8.65;2.58;;;;;;;16.26;61.91;102447.69;5155163;27;20043;-65
2023/10/04 00:36:28;;;;;;;5.60;1.95;;;;;;;16.26;61.93;102449.56;5147497;27;20104;-65
2023/10/04 00:38:56;;;;;;;7.07;2.03;;;;;;;16.24;62.00;102455.19;5147918;27;20058;-64
2023/10/04 00:41:24;;;;;;;6.13;2.47;;;;;;;16.23;61.95;102461.69;5154468;27;20081;-65
2023/10/04 00:43:53;;;;;;;7.28;2.50;;;;;;;16.24;62.01;102457.09;5150423;27;20100;-64
2023/10/04 00:46:22;;;;;;;5.30;1.90;;;;;;;16.21;62.09;102455.66;5152807;27;20047;-65
2023/10/04 00:48:54;;;;;;;6.72;2.22;;;;;;;16.20;62.15;102455.88;5149547;27;20091;-65
2023/10/04 00:51:23;;;;;;;9.25;2.70;;;;;;;16.20;62.23;102461.28;5154044;27;20059;-65
2023/10/04 00:53:53;;;;;;;6.53;1.80;;;;;;;16.20;62.03;102466.72;5150667;27;20515;-65
2023/10/04 00:56:22;;;;;;;9.25;2.53;;;;;;;16.20;62.25;102462.13;5155613;27;20038;-64
2023/10/04 00:58:52;;;;;;;6.07;2.40;;;;;;;16.21;62.08;102463.78;5149601;27;20055;-65
2023/10/04 01:01:20;;;;;;;9.02;2.53;;;;;;;16.18;62.25;102475.06;5146560;27;20100;-65
2023/10/04 01:03:49;;;;;;;4.65;2.20;;;;;;;16.17;62.29;102480.72;5155144;27;20075;-65
2023/10/04 01:06:20;;;;;;;9.05;2.17;;;;;;;16.19;62.26;102481.34;5148003;27;20095;-65
2023/10/04 01:08:48;;;;;;;7.68;2.22;;;;;;;16.18;62.26;102483.22;5146738;27;20043;-65
2023/10/04 01:11:16;;;;;;;8.52;2.15;;;;;;;16.15;62.20;102475.50;5159120;27;20076;-65
2023/10/04 01:13:44;;;;;;;6.03;1.67;;;;;;;16.16;62.33;102477.19;5153606;27;20043;-65
2023/10/04 01:16:12;;;;;;;8.05;2.90;;;;;;;16.17;62.34;102478.00;5144139;27;20061;-65
2023/10/04 01:18:40;;;;;;;5.50;1.95;;;;;;;16.16;62.31;102481.75;5144139;27;20064;-65
2023/10/04 01:21:09;;;;;;;7.95;2.10;;;;;;;16.15;62.38;102478.22;5145882;27;20107;-65
2023/10/04 01:23:40;;;;;;;5.82;1.88;;;;;;;16.15;62.44;102485.53;5145714;27;20073;-65
2023/10/04 01:26:09;;;;;;;12.57;2.63;;;;;;;16.14;62.40;102484.69;5148465;27;20095;-64
2023/10/04 01:28:39;;;;;;;9.75;2.45;;;;;;;16.11;62.29;102487.84;5146553;27;20047;-65
2023/10/04 01:31:07;;;;;;;7.38;2.40;;;;;;;16.11;62.51;102485.13;5148627;27;20091;-65
2023/10/04 01:33:35;;;;;;;7.63;2.40;;;;;;;16.12;62.38;102488.69;5154205;27;20074;-66
2023/10/04 01:36:03;;;;;;;6.32;2.20;;;;;;;16.09;62.45;102489.94;5153579;27;20291;-65
2023/10/04 01:38:32;;;;;;;8.75;2.08;;;;;;;16.10;62.41;102496.19;5148608;27;20162;-65
2023/10/04 01:41:04;;;;;;;4.55;1.90;;;;;;;16.09;62.40;102489.13;5153722;27;20051;-65
2023/10/04 01:43:32;;;;;;;4.90;1.98;;;;;;;16.10;62.30;102491.63;5148535;27;20563;-65
2023/10/04 01:46:00;;;;;;;4.53;1.58;;;;;;;16.06;62.31;102476.81;5153260;27;20058;-65
2023/10/04 01:48:30;;;;;;;9.68;2.30;;;;;;;16.11;62.30;102489.72;5155675;27;20058;-65
2023/10/04 01:51:02;;;;;;;5.13;1.95;;;;;;;16.12;62.31;102492.22;5143163;27;20077;-66
2023/10/04 01:53:33;;;;;;;7.90;2.00;;;;;;;16.11;62.38;102493.28;5152792;27;20077;-65
2023/10/04 01:56:03;;;;;;;6.22;2.00;;;;;;;16.08;62.15;102485.56;5149136;27;20050;-65
2023/10/04 01:58:31;;;;;;;6.70;2.47;;;;;;;16.10;62.26;102482.63;5151474;27;20369;-65
2023/10/04 02:01:00;;;;;;;6.57;1.80;;;;;;;16.10;62.30;102488.91;5156076;27;20415;-65
2023/10/04 02:03:29;;;;;;;8.60;1.88;;;;;;;16.10;62.14;102480.75;5146419;27;20062;-65
2023/10/04 02:05:57;;;;;;;6.05;2.58;;;;;;;16.06;62.29;102484.97;5145953;27;20213;-66
2023/10/04 02:08:26;;;;;;;18.65;2.30;;;;;;;16.10;62.36;102485.34;5144933;27;20043;-65
2023/10/04 02:10:55;;;;;;;8.60;1.85;;;;;;;16.08;62.32;102490.16;5135947;27;20103;-65
2023/10/04 02:13:25;;;;;;;6.30;2.55;;;;;;;16.08;62.34;102484.75;5143368;27;20118;-65
2023/10/04 02:15:54;;;;;;;7.18;2.03;;;;;;;16.08;62.28;102487.47;5139790;27;20462;-65
2023/10/04 02:18:23;;;;;;;4.93;2.05;;;;;;;16.07;62.32;102489.34;5135424;27;20133;-66
2023/10/04 02:20:53;;;;;;;8.50;2.13;;;;;;;16.06;62.33;102493.09;5139721;27;20051;-66
2023/10/04 02:23:23;;;;;;;6.75;2.25;;;;;;;16.04;62.46;102487.06;5139402;27;20116;-65
2023/10/04 02:25:51;;;;;;;7.88;2.05;;;;;;;16.05;62.49;102487.88;5140010;27;20038;-66
2023/10/04 02:28:22;;;;;;;7.85;2.47;;;;;;;16.05;62.37;102485.19;5135468;27;20454;-65
2023/10/04 02:30:55;;;;;;;8.68;2.15;;;;;;;16.00;62.38;102480.41;5140224;27;20188;-66
2023/10/04 02:33:31;;;;;;;5.15;1.63;;;;;;;16.04;62.36;102472.66;5149358;27;20047;-66
2023/10/04 02:36:00;;;;;;;6.90;2.92;;;;;;;16.04;62.36;102481.63;5144211;27;20047;-66
2023/10/04 02:38:31;;;;;;;6.13;1.92;;;;;;;16.03;62.47;102477.25;5149852;27;20047;-65
2023/10/04 02:41:00;;;;;;;9.27;1.90;;;;;;;16.02;62.50;102478.31;5147661;27;20071;-65
2023/10/04 02:43:28;;;;;;;4.72;1.83;;;;;;;16.02;62.53;102478.31;5137532;27;20039;-65
2023/10/04 02:45:59;;;;;;;7.72;2.80;;;;;;;16.02;62.45;102480.19;5151555;27;20087;-65
2023/10/04 02:48:30;;;;;;;5.45;1.85;;;;;;;16.02;62.63;102485.63;5131884;27;20043;-65
2023/10/04 02:50:58;;;;;;;6.00;1.83;;;;;;;16.00;62.62;102488.53;5135361;27;20055;-65
2023/10/04 02:53:27;;;;;;;6.43;2.05;;;;;;;16.01;62.62;102497.50;5138103;27;20115;-65
2023/10/04 02:55:57;;;;;;;9.10;2.28;;;;;;;15.98;62.61;102487.94;5143849;27;20051;-66
2023/10/04 02:58:26;;;;;;;6.45;2.10;;;;;;;16.01;62.54;102492.09;5135578;27;20051;-65
2023/10/04 03:00:54;;;;;;;8.13;1.92;;;;;;;16.01;62.70;102500.22;5143699;27;20539;-65
2023/10/04 03:03:24;;;;;;;6.10;1.95;;;;;;;15.97;62.58;102501.72;5143336;27;20465;-65
2023/10/04 03:05:55;;;;;;;6.90;2.30;;;;;;;16.00;62.59;102509.41;5136965;27;20078;-65
2023/10/04 03:08:23;;;;;;;6.75;2.15;;;;;;;15.98;62.32;102503.38;5142429;27;20043;-65
2023/10/04 03:10:55;;;;;;;8.82;2.30;;;;;;;15.97;62.47;102513.38;5147681;27;20050;-65
2023/10/04 03:13:25;;;;;;;6.68;2.42;;;;;;;15.98;62.69;102511.50;5142718;27;20146;-65
2023/10/04 03:15:54;;;;;;;10.10;2.63;;;;;;;15.95;62.48;102505.47;5139379;27;20107;-65
2023/10/04 03:18:25;;;;;;;6.60;1.83;;;;;;;15.93;62.51;102504.84;5136026;27;20469;-65
2023/10/04 03:21:09;;;;;;;6.78;2.05;;;;;;;15.93;62.52;102506.72;5141021;27;20092;-66
2023/10/04 03:23:40;;;;;;;6.43;1.95;;;;;;;15.93;62.63;102512.16;5144320;27;20039;-66
2023/10/04 03:26:11;;;;;;;7.30;2.10;;;;;;;15.93;62.63;102525.72;5142719;27;20043;-65
2023/10/04 03:28:40;;;;;;;7.97;2.50;;;;;;;15.92;62.79;102516.75;5147874;27;20066;-66
2023/10/04 03:31:11;;;;;;;7.90;2.60;;;;;;;15.91;62.65;102515.09;5153481;27;20090;-65
2023/10/04 03:33:40;;;;;;;7.28;2.20;;;;;;;15.92;62.72;102515.91;5154406;27;20051;-66
2023/10/04 03:36:08;;;;;;;6.20;1.98;;;;;;;15.90;62.67;102509.88;5146363;27;20055;-66
2023/10/04 03:38:36;;;;;;;10.35;2.63;;;;;;;15.90;62.63;102509.88;5152928;27;20049;-66
2023/10/04 03:41:05;;;;;;;12.00;3.53;;;;;;;15.88;62.58;102510.09;5151975;27;20047;-66
2023/10/04 03:43:35;;;;;;;7.63;2.05;;;;;;;15.83;62.49;102503.66;5143839;27;20050;-65
2023/10/04 03:46:16;;;;;;;8.73;2.47;;;;;;;15.88;62.69;102511.97;5144503;27;20043;-66
2023/10/04 03:48:46;;;;;;;6.70;2.22;;;;;;;15.88;62.64;102512.81;5140888;27;20069;-66
2023/10/04 03:51:15;;;;;;;6.55;1.67;;;;;;;15.88;62.52;102522.81;5144856;27;20055;-66
2023/10/04 03:53:43;;;;;;;6.68;1.88;;;;;;;15.79;62.48;102505.97;5147402;27;20043;-65
2023/10/04 03:56:11;;;;;;;9.52;2.70;;;;;;;15.88;62.59;102518.22;5145823;27;20054;-66
2023/10/04 03:58:40;;;;;;;5.60;1.95;;;;;;;15.87;62.58;102521.97;5145509;27;20100;-65
2023/10/04 04:01:08;;;;;;;8.65;3.15;;;;;;;15.85;62.46;102515.13;5139747;27;20225;-65
2023/10/04 04:03:37;;;;;;;6.60;2.00;;;;;;;15.82;62.60;102493.84;5143024;27;20073;-65
2023/10/04 04:06:06;;;;;;;8.07;2.20;;;;;;;15.86;62.57;102501.34;5148061;27;20043;-66
2023/10/04 04:08:34;;;;;;;7.57;1.90;;;;;;;15.85;62.61;102490.72;5143773;27;20050;-65
2023/10/04 04:11:02;;;;;;;9.52;2.47;;;;;;;15.84;62.45;102499.91;5136385;27;20100;-65
2023/10/04 04:13:29;;;;;;;9.35;2.88;;;;;;;15.83;62.40;102515.34;5144012;27;20055;-65
2023/10/04 04:15:57;;;;;;;6.70;2.47;;;;;;;15.82;62.43;102510.97;5143719;27;20072;-66
2023/10/04 04:18:29;;;;;;;9.13;2.60;;;;;;;15.82;62.41;102500.13;5136511;27;20405;-71
2023/10/04 04:20:57;;;;;;;6.00;1.80;;;;;;;15.82;62.45;102502.00;5142562;27;20050;-71
2023/10/04 04:23:27;;;;;;;8.60;2.60;;;;;;;15.81;62.51;102492.19;5140838;27;20051;-72
2023/10/04 04:25:55;;;;;;;8.10;2.50;;;;;;;15.79;62.56;102484.28;5142957;27;20117;-68
2023/10/04 04:28:24;;;;;;;6.55;2.15;;;;;;;15.78;62.43;102482.63;5141947;27;20043;-66
2023/10/04 04:30:53;;;;;;;7.47;2.20;;;;;;;15.78;62.41;102479.06;5144670;27;20077;-65
2023/10/04 04:33:26;;;;;;;10.77;2.38;;;;;;;15.77;62.45;102483.66;5145222;27;20043;-66
2023/10/04 04:36:04;;;;;;;7.75;2.03;;;;;;;15.77;62.55;102478.25;5135769;27;20104;-65
2023/10/04 04:38:38;;;;;;;7.30;2.65;;;;;;;15.76;62.52;102484.72;5142895;27;20043;-65
2023/10/04 04:41:12;;;;;;;10.27;2.63;;;;;;;15.86;62.42;102473.41;5151605;27;20046;-65
2023/10/04 04:43:40;;;;;;;6.65;2.25;;;;;;;15.78;62.33;102477.19;5141124;27;20109;-66
2023/10/04 04:46:13;;;;;;;6.72;2.30;;;;;;;15.78;62.30;102487.22;5157894;27;20110;-67
2023/10/04 04:48:42;;;;;;;7.18;2.08;;;;;;;15.72;62.45;102482.66;5144250;27;20103;-67
2023/10/04 04:51:12;;;;;;;6.43;2.30;;;;;;;15.75;62.55;102487.63;5143953;27;20065;-67
2023/10/04 04:53:43;;;;;;;7.93;2.67;;;;;;;15.74;62.44;102477.84;5154614;27;20053;-66
2023/10/04 04:56:14;;;;;;;6.22;2.10;;;;;;;15.72;62.51;102479.94;5154022;27;20130;-67
2023/10/04 04:58:44;;;;;;;9.75;2.45;;;;;;;15.68;62.53;102493.09;5147481;27;20121;-67
2023/10/04 05:01:14;;;;;;;7.53;2.70;;;;;;;15.71;62.40;102497.25;5149715;27;20095;-67
2023/10/04 05:03:45;;;;;;;7.85;2.47;;;;;;;15.67;62.27;102490.59;5152175;27;20079;-67
2023/10/04 05:06:20;;;;;;;7.78;2.22;;;;;;;15.71;62.38;102495.38;5145154;27;20046;-67
2023/10/04 05:08:50;;;;;;;5.30;2.30;;;;;;;15.70;62.37;102488.28;5146367;27;20488;-67
2023/10/04 05:11:18;;;;;;;10.85;2.45;;;;;;;15.68;62.39;102495.81;5152247;27;20047;-66
2023/10/04 05:13:46;;;;;;;7.05;2.55;;;;;;;15.68;62.44;102512.06;5154111;27;20046;-69
2023/10/04 05:16:14;;;;;;;7.82;2.08;;;;;;;15.66;62.43;102516.88;5148920;27;20043;-68
2023/10/04 05:18:43;;;;;;;7.10;2.42;;;;;;;15.62;62.40;102518.34;5145727;27;20472;-66
2023/10/04 05:21:12;;;;;;;6.97;2.17;;;;;;;15.65;62.45;102534.19;5137582;27;20111;-67
2023/10/04 05:23:40;;;;;;;6.57;2.53;;;;;;;15.63;62.58;102537.09;5147985;27;20039;-69
2023/10/04 05:26:11;;;;;;;6.65;2.58;;;;;;;15.64;62.44;102543.34;5144488;27;20086;-67
2023/10/04 05:28:39;;;;;;;7.43;2.28;;;;;;;15.62;62.59;102546.28;5157146;27;20133;-67
2023/10/04 05:31:08;;;;;;;6.78;2.25;;;;;;;15.63;62.38;102544.41;5149484;27;20062;-66
2023/10/04 05:33:36;;;;;;;7.10;2.30;;;;;;;15.63;62.45;102556.06;5154044;27;20047;-65
2023/10/04 05:36:06;;;;;;;8.30;2.50;;;;;;;15.62;62.27;102551.69;5143501;27;20043;-65
2023/10/04 05:38:35;;;;;;;5.18;2.25;;;;;;;15.60;62.37;102536.72;5147182;27;20047;-63
2023/10/04 05:41:03;;;;;;;7.03;2.47;;;;;;;15.60;62.23;102544.84;4791949;27;10000601;-66
2023/10/04 05:43:34;;;;;;;7.82;2.55;;;;;;;15.54;62.39;102532.13;5147541;27;20055;-65
2023/10/04 05:46:04;;;;;;;7.30;2.25;;;;;;;15.59;62.33;102548.63;5147059;27;20051;-65
2023/10/04 05:48:34;;;;;;;9.73;2.30;;;;;;;15.58;62.45;102552.38;5140340;27;20047;-66
2023/10/04 05:51:06;;;;;;;9.80;3.60;;;;;;;15.57;62.44;102556.13;5142533;27;20050;-66
2023/10/04 05:53:34;;;;;;;8.45;2.30;;;;;;;15.56;62.47;102563.38;5143783;27;20047;-66
2023/10/04 05:56:02;;;;;;;9.40;2.67;;;;;;;15.55;62.48;102561.72;5152286;27;20057;-66
2023/10/04 05:58:31;;;;;;;10.63;2.75;;;;;;;15.52;62.61;102562.16;5149106;27;20536;-70
2023/10/04 06:01:01;;;;;;;10.60;2.63;;;;;;;15.52;62.70;102556.72;5148397;27;20115;-68
2023/10/04 06:03:29;;;;;;;10.30;2.40;;;;;;;15.52;62.47;102564.88;5152721;27;20192;-70
2023/10/04 06:06:00;;;;;;;4.72;2.13;;;;;;;15.52;62.45;102556.72;5151945;27;20063;-68
2023/10/04 06:08:28;;;;;;;9.45;2.58;;;;;;;15.49;62.49;102561.75;5148711;27;20043;-71
2023/10/04 06:10:56;;;;;;;19.10;3.80;;;;;;;15.44;62.88;102567.81;5157407;27;20495;-69
2023/10/04 06:13:25;;;;;;;15.85;3.33;;;;;;;15.43;62.83;102565.31;5133070;27;20097;-68
2023/10/04 06:15:55;;;;;;;9.07;3.08;;;;;;;15.43;62.78;102571.56;5147559;27;20043;-69
2023/10/04 06:18:28;;;;;;;13.68;3.15;;;;;;;15.44;62.54;102570.50;5144334;27;20047;-69
2023/10/04 06:20:58;;;;;;;7.88;2.65;;;;;;;15.45;62.66;102577.59;5148935;27;21160;-69
2023/10/04 06:23:26;;;;;;;6.97;2.97;;;;;;;15.44;62.51;102581.34;5136615;27;20105;-69
2023/10/04 06:25:55;;;;;;;9.00;2.90;;;;;;;15.45;62.43;102579.47;5145805;27;20158;-68
2023/10/04 06:28:23;;;;;;;10.07;2.53;;;;;;;15.45;62.62;102585.72;5147723;27;20063;-68
2023/10/04 06:30:52;;;;;;;12.43;2.55;;;;;;;15.43;62.65;102593.22;5148839;27;20055;-66
2023/10/04 06:33:20;;;;;;;10.85;2.90;;;;;;;15.39;62.47;102591.16;5158084;27;20046;-65
2023/10/04 06:35:49;;;;;;;9.00;2.67;;;;;;;15.42;62.51;102593.44;5144537;27;20086;-65
2023/10/04 06:38:17;;;;;;;12.57;2.92;;;;;;;15.42;62.63;102604.28;5134327;27;20073;-65
2023/10/04 06:40:45;;;;;;;10.70;3.20;;;;;;;15.40;62.53;102599.06;5140253;27;20415;-65
2023/10/04 06:43:14;;;;;;;9.10;2.53;;;;;;;15.41;62.73;102600.75;5154614;27;20059;-64
2023/10/04 06:45:42;;;;;;;7.38;2.13;;;;;;;15.39;62.65;102600.13;5142536;27;20061;-65
2023/10/04 06:48:11;;;;;;;12.43;3.25;;;;;;;15.39;62.68;102600.13;5140940;27;20059;-64
2023/10/04 06:50:39;;;;;;;9.65;2.53;;;;;;;15.40;62.69;102600.94;5143155;27;20073;-64
2023/10/04 06:53:09;;;;;;;5.65;2.40;;;;;;;15.42;62.69;102618.66;5148931;27;20042;-65
2023/10/04 06:55:38;;;;;;;7.13;2.50;;;;;;;15.41;62.75;102619.69;5152881;27;20061;-65
2023/10/04 06:58:10;;;;;;;9.38;3.45;;;;;;;15.40;62.56;102617.22;5147505;27;20046;-64
2023/10/04 07:00:40;;;;;;;9.95;2.45;;;;;;;15.40;62.51;102620.75;5153798;27;20133;-65
2023/10/04 07:03:10;;;;;;;11.25;2.78;;;;;;;15.39;62.80;102619.09;5159851;27;20096;-65
2023/10/04 07:05:40;;;;;;;11.90;3.05;;;;;;;15.41;62.65;102621.59;5146207;27;20043;-65
2023/10/04 07:08:12;;;;;;;6.57;2.38;;;;;;;15.41;62.72;102618.88;5153743;27;20046;-65
2023/10/04 07:10:42;;;;;;;9.05;2.60;;;;;;;15.41;62.67;102621.59;5149583;27;20104;-65
2023/10/04 07:13:10;;;;;;;6.95;2.55;;;;;;;15.41;62.79;102614.28;5155627;27;20050;-64
2023/10/04 07:15:39;;;;;;;9.35;2.88;;;;;;;15.42;62.67;102615.13;5159699;27;20054;-65
2023/10/04 07:18:09;;;;;;;8.57;2.50;;;;;;;15.40;62.64;102615.31;5144204;27;20491;-65
2023/10/04 07:20:39;;;;;;;11.77;2.50;;;;;;;15.43;62.70;102619.50;5154711;27;20039;-65
2023/10/04 07:23:09;;;;;;;9.50;3.00;;;;;;;15.43;62.42;102614.06;5152674;27;20116;-64
2023/10/04 07:25:41;;;;;;;9.23;2.72;;;;;;;15.43;62.77;102623.03;5146246;27;20044;-63
2023/10/04 07:28:11;;;;;;;9.23;2.42;;;;;;;15.43;62.90;102614.91;5152026;27;20114;-64
2023/10/04 07:30:40;;;;;;;7.22;2.58;;;;;;;15.45;62.76;102620.13;5151999;27;20107;-64
2023/10/04 07:33:09;;;;;;;9.50;2.78;;;;;;;15.46;62.81;102619.91;5154439;27;20039;-65
2023/10/04 07:35:39;;;;;;;5.68;2.03;;;;;;;15.45;62.79;102618.25;5152220;27;20047;-64
2023/10/04 07:38:07;;;;;;;10.00;3.03;;;;;;;15.45;63.07;102610.13;5154093;27;20047;-64
2023/10/04 07:40:36;;;;;;;7.25;2.53;;;;;;;15.47;62.94;102621.56;5147735;27;20043;-64
2023/10/04 07:43:07;;;;;;;7.72;2.55;;;;;;;15.45;62.95;102618.25;5145140;27;20047;-64
2023/10/04 07:45:35;;;;;;;9.85;2.75;;;;;;;15.45;63.03;102626.38;5143291;27;20133;-65
2023/10/04 07:48:03;;;;;;;10.50;3.17;;;;;;;15.41;64.04;102640.53;5148524;27;20456;-65
2023/10/04 07:50:31;;;;;;;11.93;2.72;;;;;;;15.36;64.43;102632.22;5148923;27;20126;-65
2023/10/04 07:53:04;;;;;;;13.35;4.18;;;;;;;15.26;64.49;102632.63;5158361;27;20062;-65
2023/10/04 07:55:33;;;;;;;9.93;2.95;;;;;;;15.26;65.03;102638.06;5144313;27;20043;-65
2023/10/04 07:58:03;;;;;;;13.35;3.38;;;;;;;15.18;65.14;102632.84;5145103;27;20138;-66
2023/10/04 08:00:35;;;;;;;10.65;3.53;;;;;;;15.21;65.45;102638.69;5160468;27;20111;-65
2023/10/04 08:03:04;;;;;;;13.35;4.05;;;;;;;15.20;65.32;102642.44;5155302;27;20035;-66
2023/10/04 08:05:32;;;;;;;13.60;3.35;;;;;;;15.20;65.57;102649.72;5148529;27;20042;-66
2023/10/04 08:08:03;;;;;;;11.55;3.80;;;;;;;15.20;65.64;102649.72;5148824;27;20038;-66
2023/10/04 08:10:35;;;;;;;11.30;3.75;;;;;;;15.21;65.56;102643.28;5157225;27;20078;-65
2023/10/04 08:13:04;;;;;;;11.68;3.30;;;;;;;15.22;65.58;102643.06;5148873;27;20069;-65
2023/10/04 08:15:36;;;;;;;15.27;4.18;;;;;;;15.21;65.75;102646.81;5151906;27;20503;-65
2023/10/04 08:18:05;;;;;;;16.30;3.30;;;;;;;15.23;65.89;102646.59;5140233;27;20043;-65
2023/10/04 08:20:33;;;;;;;9.38;3.45;;;;;;;15.18;66.05;102636.41;5157772;27;20241;-65
2023/10/04 08:23:03;;;;;;;13.85;3.72;;;;;;;15.25;66.02;102653.47;5153747;27;20051;-65
2023/10/04 08:25:32;;;;;;;12.45;3.85;;;;;;;15.26;66.11;102654.31;5141684;27;20103;-66
2023/10/04 08:28:01;;;;;;;15.57;3.20;;;;;;;15.23;66.15;102655.56;5143388;27;20047;-65
2023/10/04 08:30:30;;;;;;;8.93;3.53;;;;;;;15.29;66.42;102662.03;5140982;27;20047;-65
2023/10/04 08:33:00;;;;;;;12.55;3.20;;;;;;;15.30;66.28;102655.56;5152360;27;20043;-66
2023/10/04 08:35:29;;;;;;;20.20;4.53;;;;;;;15.30;66.54;102653.69;5154014;27;20055;-66
2023/10/04 08:37:59;;;;;;;18.85;4.00;;;;;;;15.33;66.41;102660.56;5150444;27;20065;-66
2023/10/04 08:40:29;;;;;;;12.85;4.03;;;;;;;15.30;66.47;102655.56;5137501;27;20055;-65
2023/10/04 08:42:59;;;;;;;12.02;3.58;;;;;;;15.32;66.36;102658.91;5137272;27;20138;-65
2023/10/04 08:45:29;;;;;;;11.52;3.22;;;;;;;15.37;66.36;102655.56;5146116;27;20039;-65
2023/10/04 08:47:57;;;;;;;13.20;3.53;;;;;;;15.38;66.41;102657.22;5149798;27;20215;-66
2023/10/04 08:50:32;;;;;;;11.20;3.10;;;;;;;15.40;66.55;102665.97;5152705;27;20109;-65
2023/10/04 08:53:04;;;;;;;16.15;3.80;;;;;;;15.42;66.44;102655.75;5150631;27;20053;-66
2023/10/04 08:55:39;;;;;;;14.52;3.75;;;;;;;15.43;66.27;102658.25;5150050;27;20076;-66
2023/10/04 08:58:09;;;;;;;15.90;3.83;;;;;;;15.45;66.73;102664.31;5157719;27;20046;-65
2023/10/04 09:00:43;;;;;;;17.90;3.28;;;;;;;15.43;66.46;102657.44;5149714;27;20035;-65
2023/10/04 09:03:13;;;;;;;22.27;4.25;;;;;;;15.50;66.39;102669.09;5147045;27;20043;-65
2023/10/04 09:05:46;;;;;;;14.98;3.78;;;;;;;15.54;66.46;102673.06;5140977;27;20076;-65
2023/10/04 09:08:16;;;;;;;12.27;3.03;;;;;;;15.54;66.27;102670.34;5141092;27;20049;-65
2023/10/04 09:10:45;;;;;;;18.25;3.72;;;;;;;15.53;66.45;102680.34;5138810;27;20047;-67
2023/10/04 09:13:13;;;;;;;13.50;3.45;;;;;;;15.50;66.33;102669.09;5144008;27;20437;-65
2023/10/04 09:15:41;;;;;;;12.48;2.90;;;;;;;15.57;66.66;102670.78;5151312;27;20039;-65
2023/10/04 09:18:10;;;;;;;11.60;3.88;;;;;;;15.59;66.88;102663.28;5137515;27;20122;-65
2023/10/04 09:20:38;;;;;;;14.38;3.70;;;;;;;15.62;66.76;102660.13;5150723;27;20078;-65
2023/10/04 09:23:20;;;;;;;19.83;4.35;;;;;;;15.64;66.67;102665.31;5141639;27;20046;-66
2023/10/04 09:25:47;;;;;;;16.02;4.68;;;;;;;15.65;66.61;102660.72;5140604;27;20131;-66
2023/10/04 09:28:16;;;;;;;11.23;2.65;;;;;;;15.67;66.51;102650.50;5144678;27;20052;-66
2023/10/04 09:30:44;;;;;;;15.88;3.08;;;;;;;15.69;66.61;102653.84;5149722;27;20047;-66
2023/10/04 09:33:28;;;;;;;12.25;3.63;;;;;;;15.61;66.51;102641.34;5144793;27;20095;-66
2023/10/04 09:35:56;;;;;;;12.32;3.22;;;;;;;15.71;66.45;102658.00;5145425;27;20104;-66
2023/10/04 09:38:27;;;;;;;9.20;3.47;;;;;;;15.74;66.49;102657.59;5148438;27;20103;-66
2023/10/04 09:40:56;;;;;;;17.75;4.05;;;;;;;15.76;66.60;102663.63;5145094;27;20099;-66
2023/10/04 09:43:35;;;;;;;19.90;4.10;;;;;;;15.80;66.40;102664.03;5150342;27;20046;-66
2023/10/04 09:46:06;;;;;;;13.13;3.28;;;;;;;15.79;66.24;102682.19;5143119;27;20054;-66
2023/10/04 09:48:37;;;;;;;11.50;4.13;;;;;;;15.80;66.36;102673.00;5142714;27;20047;-66
2023/10/04 09:51:06;;;;;;;16.80;3.88;;;;;;;15.83;66.22;102679.88;5144491;27;20510;-66
2023/10/04 09:53:38;;;;;;;18.38;3.92;;;;;;;15.82;66.33;102668.22;5145868;27;20066;-66
2023/10/04 09:56:11;;;;;;;15.05;4.82;;;;;;;15.84;66.09;102670.72;5143089;27;20050;-66
2023/10/04 09:58:48;;;;;;;10.00;3.30;;;;;;;15.86;66.37;102661.31;5153164;27;20437;-66
2023/10/04 10:01:19;;;;;;;15.68;3.53;;;;;;;15.90;66.21;102667.16;5144112;27;20038;-66
2023/10/04 10:03:56;;;;;;;10.32;3.05;;;;;;;15.85;66.07;102662.34;5148625;27;20054;-66
2023/10/04 10:06:26;;;;;;;16.52;4.43;;;;;;;15.91;65.84;102661.50;5144902;27;20047;-66
2023/10/04 10:09:04;;;;;;;10.80;4.03;;;;;;;15.81;65.75;102655.69;5141191;27;20053;-66
2023/10/04 10:11:33;;;;;;;15.38;4.28;;;;;;;15.92;65.78;102675.91;5143193;27;20111;-66
2023/10/04 10:14:03;;;;;;;12.68;3.90;;;;;;;15.89;65.46;102657.34;5154351;27;20064;-66
2023/10/04 10:16:33;;;;;;;11.23;3.67;;;;;;;15.93;65.54;102674.84;5148593;27;20102;-66
2023/10/04 10:19:03;;;;;;;10.27;3.63;;;;;;;15.89;65.36;102674.44;5149156;27;20043;-66
2023/10/04 10:22:10;;;;;;;8.57;3.47;;;;;;;15.95;65.34;102667.34;5136160;27;20043;-66
2023/10/04 10:24:48;;;;;;;16.55;4.20;;;;;;;15.97;65.38;102667.13;5146486;27;20103;-67
2023/10/04 10:27:21;;;;;;;9.85;3.47;;;;;;;15.98;65.07;102666.91;5148326;27;20096;-64
2023/10/04 10:29:51;;;;;;;11.45;3.50;;;;;;;16.02;64.79;102661.91;5144173;27;20048;-63
2023/10/04 10:32:22;;;;;;;12.48;4.15;;;;;;;16.01;64.62;102663.78;5143631;27;20063;-65
2023/10/04 10:34:51;;;;;;;13.07;3.92;;;;;;;16.02;64.93;102662.72;5147552;27;20050;-63
2023/10/04 10:37:22;;;;;;;13.02;3.63;;;;;;;16.04;64.92;102657.94;5144650;27;20054;-64
2023/10/04 10:39:55;;;;;;;10.38;3.83;;;;;;;16.06;64.90;102661.25;5152156;27;20046;-63
2023/10/04 10:42:24;;;;;;;14.98;4.50;;;;;;;16.08;65.11;102659.16;5150237;27;20043;-62
2023/10/04 10:45:25;;;;;;;10.13;3.30;;;;;;;16.09;64.80;102655.41;5149808;27;20047;-64
2023/10/04 10:47:56;;;;;;;13.18;3.28;;;;;;;16.11;64.27;102660.63;5147056;27;20066;-63
2023/10/04 10:50:33;;;;;;;16.48;4.82;;;;;;;16.14;64.33;102662.91;5147435;27;20043;-63
2023/10/04 10:53:06;;;;;;;15.57;3.85;;;;;;;16.14;64.06;102661.03;5147482;27;20054;-63
2023/10/04 10:55:36;;;;;;;13.43;3.95;;;;;;;16.16;63.87;102660.81;5147889;27;20083;-63
2023/10/04 10:58:04;;;;;;;12.18;4.07;;;;;;;16.17;63.72;102655.16;5144381;27;20442;-63
2023/10/04 11:00:32;;;;;;;8.65;3.58;;;;;;;16.18;63.78;102653.28;5144622;27;20106;-65
2023/10/04 11:03:01;;;;;;;10.00;3.63;;;;;;;16.13;63.82;102636.81;5147510;27;20077;-63
2023/10/04 11:05:29;;;;;;;11.65;3.55;;;;;;;16.25;63.66;102646.78;5144017;27;20136;-63
2023/10/04 11:07:57;;;;;;;11.85;4.03;;;;;;;16.25;63.54;102654.09;5150965;27;20096;-64
2023/10/04 11:10:27;;;;;;;12.48;4.22;;;;;;;16.27;63.32;102638.44;5148529;27;20167;-63
2023/10/04 11:12:58;;;;;;;11.10;4.03;;;;;;;16.27;63.33;102639.25;5148257;27;20054;-63
2023/10/04 11:15:27;;;;;;;16.92;4.65;;;;;;;16.28;63.21;102640.09;5141115;27;20043;-63
2023/10/04 11:17:55;;;;;;;9.18;3.75;;;;;;;16.30;63.35;102634.44;5143948;27;20048;-64
2023/10/04 11:20:23;;;;;;;14.45;5.18;;;;;;;16.27;63.44;102630.28;5138929;27;20057;-64
2023/10/04 11:22:51;;;;;;;12.55;3.40;;;;;;;16.37;63.03;102630.66;5143582;27;20051;-65
2023/10/04 11:25:19;;;;;;;10.23;3.25;;;;;;;16.35;63.01;102630.03;5149406;27;20057;-64
2023/10/04 11:27:49;;;;;;;9.65;3.30;;;;;;;16.37;63.11;102622.50;4788763;27;9999873;-64
2023/10/04 11:30:19;;;;;;;11.25;4.10;;;;;;;16.42;63.02;102619.16;5143871;27;20114;-65
2023/10/04 11:32:47;;;;;;;10.73;4.25;;;;;;;16.40;62.85;102626.69;5145437;27;20039;-65
2023/10/04 11:35:18;;;;;;;12.15;4.15;;;;;;;16.39;62.67;102619.59;5136964;27;20043;-64